sensor_id;sensor_type;location;lat;lon;timestamp;P1;durP1;ratioP1;P2;durP2;ratioP2
21899;SDS011;11114;50.658;12.704;2022-10-31T00:01:28;9.95;;;8.85;;
21899;SDS011;11114;50.658;12.704;2022-10-31T00:03:57;9.80;;;8.30;;
21899;SDS011;11114;50.658;12.704;2022-10-31T00:06:24;10.00;;;9.10;;
21899;SDS011;11114;50.658;12.704;2022-10-31T00:08:55;10.23;;;9.20;;
21899;SDS011;11114;50.658;12.704;2022-10-31T00:11:24;9.77;;;8.77;;
21899;SDS011;11114;50.658;12.704;2022-10-31T00:13:51;9.70;;;8.68;;
21899;SDS011;11114;50.658;12.704;2022-10-31T00:16:19;10.02;;;9.02;;
21899;SDS011;11114;50.658;12.704;2022-10-31T00:18:55;9.70;;;8.90;;
21899;SDS011;11114;50.658;12.704;2022-10-31T00:21:23;9.50;;;8.48;;
21899;SDS011;11114;50.658;12.704;2022-10-31T00:23:51;9.85;;;8.88;;
21899;SDS011;11114;50.658;12.704;2022-10-31T00:26:18;12.63;;;8.95;;
21899;SDS011;11114;50.658;12.704;2022-10-31T00:28:46;10.43;;;8.98;;
21899;SDS011;11114;50.658;12.704;2022-10-31T00:31:13;12.63;;;8.45;;
21899;SDS011;11114;50.658;12.704;2022-10-31T00:33:40;10.10;;;8.43;;
21899;SDS011;11114;50.658;12.704;2022-10-31T00:36:10;11.13;;;9.60;;
21899;SDS011;11114;50.658;12.704;2022-10-31T00:38:40;10.63;;;8.63;;
21899;SDS011;11114;50.658;12.704;2022-10-31T00:41:07;12.27;;;8.90;;
21899;SDS011;11114;50.658;12.704;2022-10-31T00:43:35;12.00;;;9.25;;
21899;SDS011;11114;50.658;12.704;2022-10-31T00:46:01;10.15;;;8.52;;
21899;SDS011;11114;50.658;12.704;2022-10-31T00:48:28;9.40;;;8.50;;
21899;SDS011;11114;50.658;12.704;2022-10-31T00:50:56;12.25;;;8.85;;
21899;SDS011;11114;50.658;12.704;2022-10-31T00:53:23;9.48;;;8.57;;
21899;SDS011;11114;50.658;12.704;2022-10-31T00:55:51;9.63;;;8.70;;
21899;SDS011;11114;50.658;12.704;2022-10-31T00:58:17;10.05;;;9.07;;
21899;SDS011;11114;50.658;12.704;2022-10-31T01:00:46;10.27;;;8.43;;
21899;SDS011;11114;50.658;12.704;2022-10-31T01:03:29;10.88;;;8.77;;
21899;SDS011;11114;50.658;12.704;2022-10-31T01:08:31;11.85;;;9.00;;
21899;SDS011;11114;50.658;12.704;2022-10-31T01:11:03;9.85;;;8.80;;
21899;SDS011;11114;50.658;12.704;2022-10-31T01:13:39;11.57;;;8.80;;
21899;SDS011;11114;50.658;12.704;2022-10-31T01:16:06;9.95;;;9.07;;
21899;SDS011;11114;50.658;12.704;2022-10-31T01:18:36;10.60;;;9.02;;
21899;SDS011;11114;50.658;12.704;2022-10-31T01:21:04;9.57;;;8.68;;
21899;SDS011;11114;50.658;12.704;2022-10-31T01:23:34;10.88;;;8.65;;
21899;SDS011;11114;50.658;12.704;2022-10-31T01:26:03;12.75;;;8.85;;
21899;SDS011;11114;50.658;12.704;2022-10-31T01:28:43;10.05;;;8.57;;
21899;SDS011;11114;50.658;12.704;2022-10-31T01:31:15;9.35;;;8.55;;
21899;SDS011;11114;50.658;12.704;2022-10-31T01:33:43;9.45;;;8.55;;
21899;SDS011;11114;50.658;12.704;2022-10-31T01:36:15;11.82;;;8.70;;
21899;SDS011;11114;50.658;12.704;2022-10-31T01:38:42;9.32;;;8.43;;
21899;SDS011;11114;50.658;12.704;2022-10-31T01:41:10;11.30;;;8.70;;
21899;SDS011;11114;50.658;12.704;2022-10-31T01:43:51;9.23;;;8.25;;
21899;SDS011;11114;50.658;12.704;2022-10-31T01:46:23;11.32;;;8.73;;
21899;SDS011;11114;50.658;12.704;2022-10-31T01:49:10;9.93;;;8.48;;
21899;SDS011;11114;50.658;12.704;2022-10-31T01:51:42;9.27;;;8.10;;
21899;SDS011;11114;50.658;12.704;2022-10-31T01:54:16;14.40;;;8.23;;
21899;SDS011;11114;50.658;12.704;2022-10-31T01:56:48;13.80;;;8.57;;
21899;SDS011;11114;50.658;12.704;2022-10-31T01:59:19;9.63;;;8.73;;
21899;SDS011;11114;50.658;12.704;2022-10-31T02:01:48;11.35;;;8.60;;
21899;SDS011;11114;50.658;12.704;2022-10-31T02:04:17;9.40;;;8.10;;
21899;SDS011;11114;50.658;12.704;2022-10-31T02:06:47;9.48;;;8.40;;
21899;SDS011;11114;50.658;12.704;2022-10-31T02:09:18;9.50;;;8.38;;
21899;SDS011;11114;50.658;12.704;2022-10-31T02:11:51;9.05;;;8.35;;
21899;SDS011;11114;50.658;12.704;2022-10-31T02:14:21;9.25;;;8.35;;
21899;SDS011;11114;50.658;12.704;2022-10-31T02:16:50;9.77;;;8.85;;
21899;SDS011;11114;50.658;12.704;2022-10-31T02:19:19;10.27;;;9.10;;
21899;SDS011;11114;50.658;12.704;2022-10-31T02:22:00;9.80;;;8.40;;
21899;SDS011;11114;50.658;12.704;2022-10-31T02:33:00;11.43;;;8.50;;
21899;SDS011;11114;50.658;12.704;2022-10-31T02:38:37;9.45;;;8.55;;
21899;SDS011;11114;50.658;12.704;2022-10-31T02:41:40;9.40;;;8.57;;
21899;SDS011;11114;50.658;12.704;2022-10-31T02:47:39;9.82;;;8.82;;
21899;SDS011;11114;50.658;12.704;2022-10-31T02:52:37;9.02;;;8.23;;
21899;SDS011;11114;50.658;12.704;2022-10-31T02:57:39;9.25;;;8.25;;
21899;SDS011;11114;50.658;12.704;2022-10-31T03:00:08;9.75;;;8.32;;
21899;SDS011;11114;50.658;12.704;2022-10-31T03:11:03;9.57;;;8.57;;
21899;SDS011;11114;50.658;12.704;2022-10-31T03:18:53;10.30;;;8.35;;
21899;SDS011;11114;50.658;12.704;2022-10-31T03:21:33;9.52;;;8.25;;
21899;SDS011;11114;50.658;12.704;2022-10-31T03:24:01;9.73;;;8.20;;
21899;SDS011;11114;50.658;12.704;2022-10-31T03:26:34;13.48;;;8.63;;
21899;SDS011;11114;50.658;12.704;2022-10-31T03:29:08;9.40;;;8.30;;
21899;SDS011;11114;50.658;12.704;2022-10-31T03:31:42;9.43;;;8.23;;
21899;SDS011;11114;50.658;12.704;2022-10-31T03:34:13;10.10;;;8.32;;
21899;SDS011;11114;50.658;12.704;2022-10-31T03:36:44;9.30;;;8.43;;
21899;SDS011;11114;50.658;12.704;2022-10-31T03:39:15;9.07;;;8.18;;
21899;SDS011;11114;50.658;12.704;2022-10-31T03:41:47;16.00;;;8.10;;
21899;SDS011;11114;50.658;12.704;2022-10-31T03:44:19;9.35;;;8.43;;
21899;SDS011;11114;50.658;12.704;2022-10-31T03:46:57;9.13;;;7.32;;
21899;SDS011;11114;50.658;12.704;2022-10-31T03:49:24;8.30;;;7.50;;
21899;SDS011;11114;50.658;12.704;2022-10-31T03:51:57;8.18;;;7.38;;
21899;SDS011;11114;50.658;12.704;2022-10-31T03:57:22;8.95;;;8.10;;
21899;SDS011;11114;50.658;12.704;2022-10-31T04:02:50;8.95;;;8.05;;
21899;SDS011;11114;50.658;12.704;2022-10-31T04:05:24;9.00;;;8.10;;
21899;SDS011;11114;50.658;12.704;2022-10-31T04:07:56;9.00;;;8.15;;
21899;SDS011;11114;50.658;12.704;2022-10-31T04:10:25;9.48;;;8.05;;
21899;SDS011;11114;50.658;12.704;2022-10-31T04:13:06;12.10;;;9.00;;
21899;SDS011;11114;50.658;12.704;2022-10-31T04:15:49;11.80;;;8.65;;
21899;SDS011;11114;50.658;12.704;2022-10-31T04:18:24;9.02;;;8.05;;
21899;SDS011;11114;50.658;12.704;2022-10-31T04:20:59;8.70;;;8.00;;
21899;SDS011;11114;50.658;12.704;2022-10-31T04:23:27;10.80;;;8.50;;
21899;SDS011;11114;50.658;12.704;2022-10-31T04:25:55;14.50;;;9.35;;
21899;SDS011;11114;50.658;12.704;2022-10-31T04:28:22;10.13;;;8.50;;
21899;SDS011;11114;50.658;12.704;2022-10-31T04:30:49;11.45;;;8.90;;
21899;SDS011;11114;50.658;12.704;2022-10-31T04:33:17;12.05;;;8.82;;
21899;SDS011;11114;50.658;12.704;2022-10-31T04:35:45;10.10;;;9.10;;
21899;SDS011;11114;50.658;12.704;2022-10-31T04:38:13;9.73;;;8.80;;
21899;SDS011;11114;50.658;12.704;2022-10-31T04:40:41;9.32;;;8.52;;
21899;SDS011;11114;50.658;12.704;2022-10-31T04:43:40;10.40;;;9.27;;
21899;SDS011;11114;50.658;12.704;2022-10-31T04:46:07;9.93;;;8.57;;
21899;SDS011;11114;50.658;12.704;2022-10-31T04:48:34;10.38;;;9.32;;
21899;SDS011;11114;50.658;12.704;2022-10-31T04:51:04;9.80;;;8.80;;
21899;SDS011;11114;50.658;12.704;2022-10-31T04:53:31;9.55;;;8.65;;
21899;SDS011;11114;50.658;12.704;2022-10-31T04:56:17;12.43;;;9.60;;
21899;SDS011;11114;50.658;12.704;2022-10-31T04:58:46;11.13;;;10.02;;
21899;SDS011;11114;50.658;12.704;2022-10-31T05:01:13;10.82;;;9.98;;
21899;SDS011;11114;50.658;12.704;2022-10-31T05:03:41;11.38;;;10.25;;
21899;SDS011;11114;50.658;12.704;2022-10-31T05:06:07;10.90;;;9.85;;
21899;SDS011;11114;50.658;12.704;2022-10-31T05:08:36;11.27;;;10.30;;
21899;SDS011;11114;50.658;12.704;2022-10-31T05:11:05;10.13;;;9.23;;
21899;SDS011;11114;50.658;12.704;2022-10-31T05:13:33;12.50;;;9.85;;
21899;SDS011;11114;50.658;12.704;2022-10-31T05:16:11;13.45;;;9.63;;
21899;SDS011;11114;50.658;12.704;2022-10-31T05:18:56;10.27;;;9.27;;
21899;SDS011;11114;50.658;12.704;2022-10-31T05:21:42;11.27;;;10.15;;
21899;SDS011;11114;50.658;12.704;2022-10-31T05:24:10;10.80;;;9.80;;
21899;SDS011;11114;50.658;12.704;2022-10-31T05:26:39;10.77;;;9.68;;
21899;SDS011;11114;50.658;12.704;2022-10-31T05:29:06;12.38;;;10.57;;
21899;SDS011;11114;50.658;12.704;2022-10-31T05:31:33;12.07;;;11.07;;
21899;SDS011;11114;50.658;12.704;2022-10-31T05:34:01;11.38;;;10.38;;
21899;SDS011;11114;50.658;12.704;2022-10-31T05:37:00;11.30;;;10.25;;
21899;SDS011;11114;50.658;12.704;2022-10-31T05:39:27;10.90;;;9.90;;
21899;SDS011;11114;50.658;12.704;2022-10-31T05:42:04;12.77;;;9.75;;
21899;SDS011;11114;50.658;12.704;2022-10-31T05:44:31;10.82;;;9.73;;
21899;SDS011;11114;50.658;12.704;2022-10-31T05:47:18;10.20;;;9.20;;
21899;SDS011;11114;50.658;12.704;2022-10-31T05:49:54;10.32;;;9.32;;
21899;SDS011;11114;50.658;12.704;2022-10-31T05:52:41;10.93;;;9.90;;
21899;SDS011;11114;50.658;12.704;2022-10-31T05:55:29;10.68;;;9.85;;
21899;SDS011;11114;50.658;12.704;2022-10-31T05:58:03;11.82;;;10.73;;
21899;SDS011;11114;50.658;12.704;2022-10-31T06:00:31;14.45;;;10.35;;
21899;SDS011;11114;50.658;12.704;2022-10-31T06:03:06;12.10;;;11.00;;
21899;SDS011;11114;50.658;12.704;2022-10-31T06:05:46;10.82;;;9.90;;
21899;SDS011;11114;50.658;12.704;2022-10-31T06:08:21;11.50;;;10.60;;
21899;SDS011;11114;50.658;12.704;2022-10-31T06:10:50;11.35;;;10.10;;
21899;SDS011;11114;50.658;12.704;2022-10-31T06:13:23;11.25;;;10.20;;
21899;SDS011;11114;50.658;12.704;2022-10-31T06:15:58;12.50;;;11.40;;
21899;SDS011;11114;50.658;12.704;2022-10-31T06:18:31;11.43;;;10.45;;
21899;SDS011;11114;50.658;12.704;2022-10-31T06:20:58;11.27;;;10.45;;
21899;SDS011;11114;50.658;12.704;2022-10-31T06:23:25;11.70;;;10.50;;
21899;SDS011;11114;50.658;12.704;2022-10-31T06:26:09;13.02;;;11.70;;
21899;SDS011;11114;50.658;12.704;2022-10-31T06:28:36;11.27;;;10.18;;
21899;SDS011;11114;50.658;12.704;2022-10-31T06:31:16;11.95;;;10.90;;
21899;SDS011;11114;50.658;12.704;2022-10-31T06:33:43;11.77;;;10.77;;
21899;SDS011;11114;50.658;12.704;2022-10-31T06:36:10;11.82;;;10.82;;
21899;SDS011;11114;50.658;12.704;2022-10-31T06:38:36;10.98;;;10.05;;
21899;SDS011;11114;50.658;12.704;2022-10-31T06:41:06;11.32;;;10.38;;
21899;SDS011;11114;50.658;12.704;2022-10-31T06:43:52;11.77;;;10.88;;
21899;SDS011;11114;50.658;12.704;2022-10-31T06:46:39;12.50;;;11.20;;
21899;SDS011;11114;50.658;12.704;2022-10-31T06:52:13;11.45;;;10.55;;
21899;SDS011;11114;50.658;12.704;2022-10-31T06:54:40;11.90;;;10.95;;
21899;SDS011;11114;50.658;12.704;2022-10-31T06:57:07;12.75;;;11.23;;
21899;SDS011;11114;50.658;12.704;2022-10-31T06:59:36;13.52;;;12.18;;
21899;SDS011;11114;50.658;12.704;2022-10-31T07:02:29;12.73;;;11.60;;
21899;SDS011;11114;50.658;12.704;2022-10-31T07:04:58;12.70;;;11.70;;
21899;SDS011;11114;50.658;12.704;2022-10-31T07:07:25;13.35;;;12.15;;
21899;SDS011;11114;50.658;12.704;2022-10-31T07:09:52;12.50;;;11.50;;
21899;SDS011;11114;50.658;12.704;2022-10-31T07:12:33;12.45;;;11.55;;
21899;SDS011;11114;50.658;12.704;2022-10-31T07:15:00;12.90;;;11.57;;
21899;SDS011;11114;50.658;12.704;2022-10-31T07:17:27;13.18;;;12.07;;
21899;SDS011;11114;50.658;12.704;2022-10-31T07:19:58;12.95;;;11.75;;
21899;SDS011;11114;50.658;12.704;2022-10-31T07:22:31;13.35;;;12.15;;
21899;SDS011;11114;50.658;12.704;2022-10-31T07:25:04;14.85;;;13.45;;
21899;SDS011;11114;50.658;12.704;2022-10-31T07:27:42;14.43;;;13.15;;
21899;SDS011;11114;50.658;12.704;2022-10-31T07:30:11;13.68;;;12.57;;
21899;SDS011;11114;50.658;12.704;2022-10-31T07:32:49;13.70;;;12.40;;
21899;SDS011;11114;50.658;12.704;2022-10-31T07:35:28;13.60;;;12.57;;
21899;SDS011;11114;50.658;12.704;2022-10-31T07:37:57;14.52;;;13.13;;
21899;SDS011;11114;50.658;12.704;2022-10-31T07:40:24;17.25;;;15.45;;
21899;SDS011;11114;50.658;12.704;2022-10-31T07:42:52;20.48;;;15.82;;
21899;SDS011;11114;50.658;12.704;2022-10-31T07:45:49;16.80;;;15.25;;
21899;SDS011;11114;50.658;12.704;2022-10-31T07:48:36;15.88;;;14.48;;
21899;SDS011;11114;50.658;12.704;2022-10-31T07:51:23;14.98;;;13.52;;
21899;SDS011;11114;50.658;12.704;2022-10-31T07:54:08;16.10;;;14.40;;
21899;SDS011;11114;50.658;12.704;2022-10-31T07:56:36;14.60;;;13.45;;
21899;SDS011;11114;50.658;12.704;2022-10-31T07:59:05;14.95;;;13.65;;
21899;SDS011;11114;50.658;12.704;2022-10-31T08:01:32;14.77;;;13.57;;
21899;SDS011;11114;50.658;12.704;2022-10-31T08:04:19;17.98;;;16.10;;
21899;SDS011;11114;50.658;12.704;2022-10-31T08:07:04;15.02;;;13.73;;
21899;SDS011;11114;50.658;12.704;2022-10-31T08:09:34;12.13;;;11.13;;
21899;SDS011;11114;50.658;12.704;2022-10-31T08:12:09;13.23;;;12.15;;
21899;SDS011;11114;50.658;12.704;2022-10-31T08:14:37;14.30;;;12.63;;
21899;SDS011;11114;50.658;12.704;2022-10-31T08:17:04;13.10;;;11.90;;
21899;SDS011;11114;50.658;12.704;2022-10-31T08:19:40;13.57;;;12.13;;
21899;SDS011;11114;50.658;12.704;2022-10-31T08:24:37;14.68;;;11.93;;
21899;SDS011;11114;50.658;12.704;2022-10-31T08:27:09;12.60;;;11.50;;
21899;SDS011;11114;50.658;12.704;2022-10-31T08:29:38;13.05;;;11.80;;
21899;SDS011;11114;50.658;12.704;2022-10-31T08:32:05;13.18;;;11.88;;
21899;SDS011;11114;50.658;12.704;2022-10-31T08:34:51;14.52;;;11.85;;
21899;SDS011;11114;50.658;12.704;2022-10-31T08:37:38;13.27;;;12.02;;
21899;SDS011;11114;50.658;12.704;2022-10-31T08:40:05;14.63;;;13.20;;
21899;SDS011;11114;50.658;12.704;2022-10-31T08:42:34;14.43;;;13.20;;
21899;SDS011;11114;50.658;12.704;2022-10-31T08:45:01;15.05;;;13.43;;
21899;SDS011;11114;50.658;12.704;2022-10-31T08:47:31;14.90;;;13.10;;
21899;SDS011;11114;50.658;12.704;2022-10-31T08:49:58;13.40;;;12.10;;
21899;SDS011;11114;50.658;12.704;2022-10-31T08:52:25;15.82;;;13.13;;
21899;SDS011;11114;50.658;12.704;2022-10-31T08:55:13;13.43;;;12.05;;
21899;SDS011;11114;50.658;12.704;2022-10-31T08:57:58;13.35;;;12.30;;
21899;SDS011;11114;50.658;12.704;2022-10-31T09:00:35;14.60;;;13.15;;
21899;SDS011;11114;50.658;12.704;2022-10-31T09:03:17;14.07;;;12.77;;
21899;SDS011;11114;50.658;12.704;2022-10-31T09:05:55;14.82;;;13.43;;
21899;SDS011;11114;50.658;12.704;2022-10-31T09:08:25;13.63;;;12.43;;
21899;SDS011;11114;50.658;12.704;2022-10-31T09:10:55;14.00;;;12.25;;
21899;SDS011;11114;50.658;12.704;2022-10-31T09:13:43;13.35;;;12.10;;
21899;SDS011;11114;50.658;12.704;2022-10-31T09:16:33;13.98;;;12.65;;
21899;SDS011;11114;50.658;12.704;2022-10-31T09:19:00;13.52;;;12.25;;
21899;SDS011;11114;50.658;12.704;2022-10-31T09:21:27;15.57;;;12.73;;
21899;SDS011;11114;50.658;12.704;2022-10-31T09:23:57;14.35;;;12.82;;
21899;SDS011;11114;50.658;12.704;2022-10-31T09:26:24;15.45;;;13.57;;
21899;SDS011;11114;50.658;12.704;2022-10-31T09:29:13;16.63;;;13.05;;
21899;SDS011;11114;50.658;12.704;2022-10-31T09:31:41;15.65;;;14.10;;
21899;SDS011;11114;50.658;12.704;2022-10-31T09:34:25;15.73;;;13.27;;
21899;SDS011;11114;50.658;12.704;2022-10-31T09:37:07;14.88;;;13.40;;
21899;SDS011;11114;50.658;12.704;2022-10-31T09:39:34;14.57;;;12.80;;
21899;SDS011;11114;50.658;12.704;2022-10-31T09:47:50;14.00;;;12.60;;
21899;SDS011;11114;50.658;12.704;2022-10-31T09:50:48;15.85;;;13.20;;
21899;SDS011;11114;50.658;12.704;2022-10-31T09:56:23;14.73;;;13.38;;
21899;SDS011;11114;50.658;12.704;2022-10-31T09:58:56;15.45;;;12.98;;
21899;SDS011;11114;50.658;12.704;2022-10-31T10:02:02;14.50;;;13.00;;
21899;SDS011;11114;50.658;12.704;2022-10-31T10:04:43;14.32;;;13.07;;
21899;SDS011;11114;50.658;12.704;2022-10-31T10:19:39;14.40;;;12.73;;
21899;SDS011;11114;50.658;12.704;2022-10-31T10:22:54;14.38;;;13.00;;
21899;SDS011;11114;50.658;12.704;2022-10-31T10:25:33;15.23;;;13.52;;
21899;SDS011;11114;50.658;12.704;2022-10-31T10:30:47;17.42;;;13.40;;
21899;SDS011;11114;50.658;12.704;2022-10-31T10:33:39;15.13;;;13.07;;
21899;SDS011;11114;50.658;12.704;2022-10-31T10:36:12;15.32;;;13.65;;
21899;SDS011;11114;50.658;12.704;2022-10-31T10:41:22;15.05;;;13.45;;
21899;SDS011;11114;50.658;12.704;2022-10-31T10:43:55;25.67;;;13.13;;
21899;SDS011;11114;50.658;12.704;2022-10-31T10:57:55;16.83;;;13.07;;
21899;SDS011;11114;50.658;12.704;2022-10-31T11:00:34;15.05;;;13.50;;
21899;SDS011;11114;50.658;12.704;2022-10-31T11:03:08;17.35;;;13.57;;
21899;SDS011;11114;50.658;12.704;2022-10-31T11:05:37;15.32;;;13.05;;
21899;SDS011;11114;50.658;12.704;2022-10-31T11:08:07;15.13;;;13.27;;
21899;SDS011;11114;50.658;12.704;2022-10-31T11:10:35;13.60;;;12.20;;
21899;SDS011;11114;50.658;12.704;2022-10-31T11:15:51;13.25;;;11.85;;
21899;SDS011;11114;50.658;12.704;2022-10-31T11:18:20;13.27;;;11.77;;
21899;SDS011;11114;50.658;12.704;2022-10-31T11:20:56;14.75;;;11.45;;
21899;SDS011;11114;50.658;12.704;2022-10-31T11:23:26;13.07;;;11.57;;
21899;SDS011;11114;50.658;12.704;2022-10-31T11:26:01;13.50;;;11.07;;
21899;SDS011;11114;50.658;12.704;2022-10-31T11:28:31;13.55;;;12.18;;
21899;SDS011;11114;50.658;12.704;2022-10-31T11:31:08;13.35;;;11.95;;
21899;SDS011;11114;50.658;12.704;2022-10-31T11:33:44;13.20;;;11.93;;
21899;SDS011;11114;50.658;12.704;2022-10-31T11:36:16;13.95;;;12.52;;
21899;SDS011;11114;50.658;12.704;2022-10-31T11:38:57;13.40;;;11.93;;
21899;SDS011;11114;50.658;12.704;2022-10-31T11:41:28;15.95;;;11.93;;
21899;SDS011;11114;50.658;12.704;2022-10-31T11:46:36;15.05;;;12.75;;
21899;SDS011;11114;50.658;12.704;2022-10-31T11:49:41;15.90;;;11.15;;
21899;SDS011;11114;50.658;12.704;2022-10-31T11:52:12;13.45;;;11.90;;
21899;SDS011;11114;50.658;12.704;2022-10-31T11:54:54;14.48;;;12.02;;
21899;SDS011;11114;50.658;12.704;2022-10-31T11:59:58;14.07;;;12.23;;
21899;SDS011;11114;50.658;12.704;2022-10-31T12:02:37;12.50;;;11.25;;
21899;SDS011;11114;50.658;12.704;2022-10-31T12:05:06;13.68;;;12.02;;
21899;SDS011;11114;50.658;12.704;2022-10-31T12:07:44;12.00;;;10.90;;
21899;SDS011;11114;50.658;12.704;2022-10-31T12:10:11;12.23;;;11.13;;
21899;SDS011;11114;50.658;12.704;2022-10-31T12:18:17;11.57;;;10.25;;
21899;SDS011;11114;50.658;12.704;2022-10-31T12:21:17;10.63;;;9.55;;
21899;SDS011;11114;50.658;12.704;2022-10-31T12:39:50;13.85;;;10.75;;
21899;SDS011;11114;50.658;12.704;2022-10-31T12:45:18;14.05;;;10.98;;
21899;SDS011;11114;50.658;12.704;2022-10-31T12:53:25;13.48;;;11.57;;
21899;SDS011;11114;50.658;12.704;2022-10-31T12:58:38;12.77;;;11.13;;
21899;SDS011;11114;50.658;12.704;2022-10-31T13:01:17;13.20;;;10.73;;
21899;SDS011;11114;50.658;12.704;2022-10-31T13:03:53;11.70;;;10.50;;
21899;SDS011;11114;50.658;12.704;2022-10-31T13:06:23;12.82;;;10.25;;
21899;SDS011;11114;50.658;12.704;2022-10-31T13:08:55;12.88;;;10.65;;
21899;SDS011;11114;50.658;12.704;2022-10-31T13:11:36;12.30;;;10.57;;
21899;SDS011;11114;50.658;12.704;2022-10-31T13:16:59;11.63;;;10.35;;
21899;SDS011;11114;50.658;12.704;2022-10-31T13:27:20;12.98;;;10.73;;
21899;SDS011;11114;50.658;12.704;2022-10-31T13:32:38;20.30;;;11.95;;
21899;SDS011;11114;50.658;12.704;2022-10-31T13:35:14;11.93;;;10.90;;
21899;SDS011;11114;50.658;12.704;2022-10-31T13:37:49;15.55;;;10.98;;
21899;SDS011;11114;50.658;12.704;2022-10-31T13:40:38;13.95;;;11.27;;
21899;SDS011;11114;50.658;12.704;2022-10-31T13:46:25;14.60;;;10.68;;
21899;SDS011;11114;50.658;12.704;2022-10-31T13:48:58;15.85;;;12.50;;
21899;SDS011;11114;50.658;12.704;2022-10-31T13:51:27;14.65;;;12.48;;
21899;SDS011;11114;50.658;12.704;2022-10-31T13:54:01;16.05;;;12.00;;
21899;SDS011;11114;50.658;12.704;2022-10-31T13:56:48;15.27;;;11.98;;
21899;SDS011;11114;50.658;12.704;2022-10-31T13:59:19;13.25;;;11.10;;
21899;SDS011;11114;50.658;12.704;2022-10-31T14:04:22;11.20;;;10.00;;
21899;SDS011;11114;50.658;12.704;2022-10-31T14:07:08;15.77;;;10.48;;
21899;SDS011;11114;50.658;12.704;2022-10-31T14:12:22;12.57;;;11.27;;
21899;SDS011;11114;50.658;12.704;2022-10-31T14:14:51;13.32;;;12.02;;
21899;SDS011;11114;50.658;12.704;2022-10-31T14:17:25;15.02;;;12.52;;
21899;SDS011;11114;50.658;12.704;2022-10-31T14:19:59;13.20;;;11.90;;
21899;SDS011;11114;50.658;12.704;2022-10-31T14:22:31;12.40;;;11.05;;
21899;SDS011;11114;50.658;12.704;2022-10-31T14:28:18;12.82;;;11.52;;
21899;SDS011;11114;50.658;12.704;2022-10-31T14:30:59;12.45;;;11.35;;
21899;SDS011;11114;50.658;12.704;2022-10-31T14:33:27;13.05;;;12.00;;
21899;SDS011;11114;50.658;12.704;2022-10-31T14:38:57;11.90;;;10.70;;
21899;SDS011;11114;50.658;12.704;2022-10-31T14:50:00;13.27;;;11.73;;
21899;SDS011;11114;50.658;12.704;2022-10-31T14:52:36;14.40;;;12.30;;
21899;SDS011;11114;50.658;12.704;2022-10-31T14:55:05;13.20;;;11.90;;
21899;SDS011;11114;50.658;12.704;2022-10-31T14:57:38;13.00;;;11.80;;
21899;SDS011;11114;50.658;12.704;2022-10-31T15:00:19;12.85;;;11.57;;
21899;SDS011;11114;50.658;12.704;2022-10-31T15:05:42;13.13;;;11.90;;
21899;SDS011;11114;50.658;12.704;2022-10-31T15:08:27;13.70;;;12.32;;
21899;SDS011;11114;50.658;12.704;2022-10-31T15:10:54;13.82;;;12.45;;
21899;SDS011;11114;50.658;12.704;2022-10-31T15:13:21;14.27;;;12.98;;
21899;SDS011;11114;50.658;12.704;2022-10-31T15:15:52;14.95;;;13.50;;
21899;SDS011;11114;50.658;12.704;2022-10-31T15:18:23;15.10;;;13.50;;
21899;SDS011;11114;50.658;12.704;2022-10-31T15:20:52;14.13;;;12.73;;
21899;SDS011;11114;50.658;12.704;2022-10-31T15:23:22;15.25;;;13.32;;
21899;SDS011;11114;50.658;12.704;2022-10-31T15:25:58;13.95;;;12.75;;
21899;SDS011;11114;50.658;12.704;2022-10-31T15:28:29;16.98;;;12.77;;
21899;SDS011;11114;50.658;12.704;2022-10-31T15:30:58;17.40;;;13.10;;
21899;SDS011;11114;50.658;12.704;2022-10-31T15:33:28;13.63;;;12.43;;
21899;SDS011;11114;50.658;12.704;2022-10-31T15:36:04;16.17;;;13.50;;
21899;SDS011;11114;50.658;12.704;2022-10-31T15:38:31;15.13;;;13.82;;
21899;SDS011;11114;50.658;12.704;2022-10-31T15:41:01;14.98;;;13.48;;
21899;SDS011;11114;50.658;12.704;2022-10-31T15:43:35;13.55;;;12.32;;
21899;SDS011;11114;50.658;12.704;2022-10-31T15:46:04;12.77;;;11.73;;
21899;SDS011;11114;50.658;12.704;2022-10-31T15:48:35;13.40;;;12.13;;
21899;SDS011;11114;50.658;12.704;2022-10-31T15:51:02;12.18;;;11.18;;
21899;SDS011;11114;50.658;12.704;2022-10-31T15:53:35;13.40;;;11.98;;
21899;SDS011;11114;50.658;12.704;2022-10-31T15:56:25;12.30;;;11.10;;
21899;SDS011;11114;50.658;12.704;2022-10-31T15:58:57;13.00;;;11.55;;
21899;SDS011;11114;50.658;12.704;2022-10-31T16:01:26;13.68;;;11.63;;
21899;SDS011;11114;50.658;12.704;2022-10-31T16:04:29;14.27;;;11.90;;
21899;SDS011;11114;50.658;12.704;2022-10-31T16:07:23;14.13;;;12.77;;
21899;SDS011;11114;50.658;12.704;2022-10-31T16:09:52;14.55;;;13.10;;
21899;SDS011;11114;50.658;12.704;2022-10-31T16:12:25;14.80;;;13.50;;
21899;SDS011;11114;50.658;12.704;2022-10-31T16:15:01;14.13;;;12.80;;
21899;SDS011;11114;50.658;12.704;2022-10-31T16:17:29;13.63;;;12.27;;
21899;SDS011;11114;50.658;12.704;2022-10-31T16:19:57;12.98;;;11.70;;
21899;SDS011;11114;50.658;12.704;2022-10-31T16:22:31;12.38;;;11.20;;
21899;SDS011;11114;50.658;12.704;2022-10-31T16:25:11;14.60;;;13.15;;
21899;SDS011;11114;50.658;12.704;2022-10-31T16:27:46;13.48;;;12.07;;
21899;SDS011;11114;50.658;12.704;2022-10-31T16:35:53;14.88;;;12.95;;
21899;SDS011;11114;50.658;12.704;2022-10-31T16:38:41;14.60;;;11.75;;
21899;SDS011;11114;50.658;12.704;2022-10-31T16:41:08;12.63;;;11.35;;
21899;SDS011;11114;50.658;12.704;2022-10-31T16:43:35;12.57;;;11.18;;
21899;SDS011;11114;50.658;12.704;2022-10-31T16:46:02;13.38;;;12.05;;
21899;SDS011;11114;50.658;12.704;2022-10-31T16:48:29;12.40;;;11.20;;
21899;SDS011;11114;50.658;12.704;2022-10-31T16:50:56;14.10;;;11.80;;
21899;SDS011;11114;50.658;12.704;2022-10-31T16:53:23;12.70;;;11.60;;
21899;SDS011;11114;50.658;12.704;2022-10-31T16:55:52;12.82;;;11.70;;
21899;SDS011;11114;50.658;12.704;2022-10-31T17:00:50;12.50;;;11.20;;
21899;SDS011;11114;50.658;12.704;2022-10-31T17:03:19;12.07;;;10.98;;
21899;SDS011;11114;50.658;12.704;2022-10-31T17:05:46;13.50;;;12.13;;
21899;SDS011;11114;50.658;12.704;2022-10-31T17:08:13;14.20;;;12.00;;
21899;SDS011;11114;50.658;12.704;2022-10-31T17:10:40;14.02;;;12.73;;
21899;SDS011;11114;50.658;12.704;2022-10-31T17:13:13;13.90;;;12.27;;
21899;SDS011;11114;50.658;12.704;2022-10-31T17:15:45;14.13;;;12.93;;
21899;SDS011;11114;50.658;12.704;2022-10-31T17:18:18;13.50;;;12.10;;
21899;SDS011;11114;50.658;12.704;2022-10-31T17:20:59;13.98;;;12.73;;
21899;SDS011;11114;50.658;12.704;2022-10-31T17:23:28;15.68;;;12.70;;
21899;SDS011;11114;50.658;12.704;2022-10-31T17:25:57;13.55;;;12.38;;
21899;SDS011;11114;50.658;12.704;2022-10-31T17:28:25;13.23;;;12.05;;
21899;SDS011;11114;50.658;12.704;2022-10-31T17:30:56;14.35;;;12.95;;
21899;SDS011;11114;50.658;12.704;2022-10-31T17:33:25;14.82;;;13.25;;
21899;SDS011;11114;50.658;12.704;2022-10-31T17:35:52;14.57;;;13.23;;
21899;SDS011;11114;50.658;12.704;2022-10-31T17:38:21;14.57;;;13.07;;
21899;SDS011;11114;50.658;12.704;2022-10-31T17:40:49;14.23;;;12.63;;
21899;SDS011;11114;50.658;12.704;2022-10-31T17:43:16;16.10;;;13.60;;
21899;SDS011;11114;50.658;12.704;2022-10-31T17:45:44;15.15;;;13.38;;